sensor_id;sensor_type;location;lat;lon;timestamp;pressure;altitude;pressure_sealevel;temperature;humidity
53651;BME280;39552;45.776;15.892;2022-11-20T00:02:00;99900.25;;;5.09;100.00
53651;BME280;39552;45.776;15.892;2022-11-20T00:04:27;99904.09;;;5.04;100.00
53651;BME280;39552;45.776;15.892;2022-11-20T00:06:55;99924.22;;;5.14;100.00
53651;BME280;39552;45.776;15.892;2022-11-20T00:09:22;99909.38;;;4.85;100.00
53651;BME280;39552;45.776;15.892;2022-11-20T00:11:49;99926.00;;;4.93;100.00
53651;BME280;39552;45.776;15.892;2022-11-20T00:14:16;99912.84;;;4.87;100.00
53651;BME280;39552;45.776;15.892;2022-11-20T00:16:42;99922.44;;;4.92;100.00
53651;BME280;39552;45.776;15.892;2022-11-20T00:19:09;99930.13;;;5.00;100.00
53651;BME280;39552;45.776;15.892;2022-11-20T00:21:36;99945.59;;;5.16;100.00
53651;BME280;39552;45.776;15.892;2022-11-20T00:24:05;99936.72;;;5.13;100.00
53651;BME280;39552;45.776;15.892;2022-11-20T00:26:32;99945.69;;;5.35;100.00
53651;BME280;39552;45.776;15.892;2022-11-20T00:29:00;99948.91;;;5.43;100.00
53651;BME280;39552;45.776;15.892;2022-11-20T00:31:27;99938.69;;;5.30;100.00
53651;BME280;39552;45.776;15.892;2022-11-20T00:33:55;99946.97;;;5.26;100.00
53651;BME280;39552;45.776;15.892;2022-11-20T00:36:23;99945.84;;;5.09;100.00
53651;BME280;39552;45.776;15.892;2022-11-20T00:38:51;99940.00;;;5.00;100.00
53651;BME280;39552;45.776;15.892;2022-11-20T00:41:20;99955.47;;;4.71;100.00
53651;BME280;39552;45.776;15.892;2022-11-20T00:43:47;99955.75;;;4.87;100.00
53651;BME280;39552;45.776;15.892;2022-11-20T00:46:16;99914.28;;;4.51;100.00
53651;BME280;39552;45.776;15.892;2022-11-20T00:48:43;99961.28;;;4.82;100.00
53651;BME280;39552;45.776;15.892;2022-11-20T00:51:12;99960.81;;;4.71;100.00
53651;BME280;39552;45.776;15.892;2022-11-20T00:53:38;99948.63;;;4.86;100.00
53651;BME280;39552;45.776;15.892;2022-11-20T00:56:07;99975.19;;;4.70;100.00
53651;BME280;39552;45.776;15.892;2022-11-20T00:58:38;99959.72;;;4.55;100.00
53651;BME280;39552;45.776;15.892;2022-11-20T01:01:06;99980.78;;;4.64;100.00
53651;BME280;39552;45.776;15.892;2022-11-20T01:03:35;99980.78;;;4.64;100.00
53651;BME280;39552;45.776;15.892;2022-11-20T01:06:03;99962.25;;;4.58;100.00
53651;BME280;39552;45.776;15.892;2022-11-20T01:08:30;99975.22;;;4.68;100.00
53651;BME280;39552;45.776;15.892;2022-11-20T01:11:00;99993.84;;;4.49;100.00
53651;BME280;39552;45.776;15.892;2022-11-20T01:13:28;99990.53;;;4.43;100.00
53651;BME280;39552;45.776;15.892;2022-11-20T01:16:02;99974.88;;;4.32;100.00
53651;BME280;39552;45.776;15.892;2022-11-20T01:18:28;99972.53;;;4.46;100.00
53651;BME280;39552;45.776;15.892;2022-11-20T01:20:54;99973.75;;;4.38;100.00
53651;BME280;39552;45.776;15.892;2022-11-20T01:23:21;99976.03;;;4.48;100.00
53651;BME280;39552;45.776;15.892;2022-11-20T01:25:47;99976.34;;;4.63;100.00
53651;BME280;39552;45.776;15.892;2022-11-20T01:28:14;99964.72;;;4.40;100.00
53651;BME280;39552;45.776;15.892;2022-11-20T01:30:40;99970.28;;;4.58;100.00
53651;BME280;39552;45.776;15.892;2022-11-20T01:33:08;99979.00;;;4.41;100.00
53651;BME280;39552;45.776;15.892;2022-11-20T01:35:35;99974.47;;;4.65;100.00
53651;BME280;39552;45.776;15.892;2022-11-20T01:38:01;99969.09;;;4.43;100.00
53651;BME280;39552;45.776;15.892;2022-11-20T01:40:28;99969.13;;;4.19;100.00
53651;BME280;39552;45.776;15.892;2022-11-20T01:45:42;99975.81;;;4.31;100.00
53651;BME280;39552;45.776;15.892;2022-11-20T01:48:18;99983.19;;;4.24;100.00
53651;BME280;39552;45.776;15.892;2022-11-20T01:50:47;99977.25;;;4.40;100.00
53651;BME280;39552;45.776;15.892;2022-11-20T01:53:15;99984.75;;;4.53;100.00
53651;BME280;39552;45.776;15.892;2022-11-20T01:55:43;99984.72;;;4.31;100.00
53651;BME280;39552;45.776;15.892;2022-11-20T01:58:12;99978.84;;;4.22;100.00
53651;BME280;39552;45.776;15.892;2022-11-20T02:00:38;99973.13;;;4.31;100.00
53651;BME280;39552;45.776;15.892;2022-11-20T02:03:08;99975.56;;;4.37;100.00
53651;BME280;39552;45.776;15.892;2022-11-20T02:05:38;99970.97;;;4.41;100.00
53651;BME280;39552;45.776;15.892;2022-11-20T02:08:07;99966.47;;;4.41;100.00
53651;BME280;39552;45.776;15.892;2022-11-20T02:10:34;99963.78;;;4.19;100.00
53651;BME280;39552;45.776;15.892;2022-11-20T02:13:01;99968.59;;;4.33;100.00
53651;BME280;39552;45.776;15.892;2022-11-20T02:15:27;99958.34;;;4.21;100.00
53651;BME280;39552;45.776;15.892;2022-11-20T02:17:55;99963.94;;;4.14;100.00
53651;BME280;39552;45.776;15.892;2022-11-20T02:20:22;99965.31;;;4.01;100.00
53651;BME280;39552;45.776;15.892;2022-11-20T02:22:50;99966.25;;;4.24;100.00
53651;BME280;39552;45.776;15.892;2022-11-20T02:25:21;99967.41;;;4.17;100.00
53651;BME280;39552;45.776;15.892;2022-11-20T02:27:50;99975.44;;;4.17;100.00
53651;BME280;39552;45.776;15.892;2022-11-20T02:30:17;99970.66;;;4.01;100.00
53651;BME280;39552;45.776;15.892;2022-11-20T02:32:43;99964.16;;;4.08;100.00
53651;BME280;39552;45.776;15.892;2022-11-20T02:37:53;99961.53;;;4.30;100.00
53651;BME280;39552;45.776;15.892;2022-11-20T02:40:20;99953.94;;;4.20;100.00
53651;BME280;39552;45.776;15.892;2022-11-20T02:42:48;99957.28;;;4.25;100.00
53651;BME280;39552;45.776;15.892;2022-11-20T02:45:17;99947.28;;;4.30;100.00
53651;BME280;39552;45.776;15.892;2022-11-20T02:47:44;99949.59;;;4.39;100.00
53651;BME280;39552;45.776;15.892;2022-11-20T02:50:10;99958.66;;;4.59;100.00
53651;BME280;39552;45.776;15.892;2022-11-20T02:52:37;99959.34;;;4.64;100.00
53651;BME280;39552;45.776;15.892;2022-11-20T02:55:04;99960.56;;;4.33;100.00
53651;BME280;39552;45.776;15.892;2022-11-20T02:57:30;99970.66;;;4.25;100.00
53651;BME280;39552;45.776;15.892;2022-11-20T02:59:58;99972.19;;;4.32;100.00
53651;BME280;39552;45.776;15.892;2022-11-20T03:02:24;99960.41;;;4.36;100.00
53651;BME280;39552;45.776;15.892;2022-11-20T03:04:51;99958.28;;;4.22;100.00
53651;BME280;39552;45.776;15.892;2022-11-20T03:07:17;99971.09;;;4.14;100.00
53651;BME280;39552;45.776;15.892;2022-11-20T03:09:44;99960.19;;;4.19;100.00
53651;BME280;39552;45.776;15.892;2022-11-20T03:12:10;99969.91;;;4.45;100.00
53651;BME280;39552;45.776;15.892;2022-11-20T03:14:37;99942.97;;;4.26;100.00
53651;BME280;39552;45.776;15.892;2022-11-20T03:17:05;99969.66;;;4.29;100.00
53651;BME280;39552;45.776;15.892;2022-11-20T03:19:36;99964.16;;;4.32;100.00
53651;BME280;39552;45.776;15.892;2022-11-20T03:22:03;99970.53;;;4.51;100.00
53651;BME280;39552;45.776;15.892;2022-11-20T03:24:29;99970.84;;;4.44;100.00
53651;BME280;39552;45.776;15.892;2022-11-20T03:26:56;99962.91;;;4.64;100.00
53651;BME280;39552;45.776;15.892;2022-11-20T03:29:22;99960.00;;;4.47;100.00
53651;BME280;39552;45.776;15.892;2022-11-20T03:31:49;99968.44;;;4.60;100.00
53651;BME280;39552;45.776;15.892;2022-11-20T03:34:17;99974.00;;;4.77;100.00
53651;BME280;39552;45.776;15.892;2022-11-20T03:36:44;99968.19;;;4.66;100.00
53651;BME280;39552;45.776;15.892;2022-11-20T03:39:11;99952.97;;;4.44;100.00
53651;BME280;39552;45.776;15.892;2022-11-20T03:41:38;99950.09;;;4.27;100.00
53651;BME280;39552;45.776;15.892;2022-11-20T03:44:06;99949.34;;;4.23;100.00
53651;BME280;39552;45.776;15.892;2022-11-20T03:46:32;99955.56;;;4.24;100.00
53651;BME280;39552;45.776;15.892;2022-11-20T03:48:59;99952.16;;;4.19;100.00
53651;BME280;39552;45.776;15.892;2022-11-20T03:51:27;99948.28;;;4.27;100.00
53651;BME280;39552;45.776;15.892;2022-11-20T03:53:56;99946.66;;;4.23;100.00
53651;BME280;39552;45.776;15.892;2022-11-20T03:56:24;99944.31;;;4.14;100.00
53651;BME280;39552;45.776;15.892;2022-11-20T03:58:51;99951.13;;;4.23;100.00
53651;BME280;39552;45.776;15.892;2022-11-20T04:01:18;99954.84;;;4.19;100.00
53651;BME280;39552;45.776;15.892;2022-11-20T04:03:45;99955.38;;;4.05;100.00
53651;BME280;39552;45.776;15.892;2022-11-20T04:06:12;99960.59;;;3.84;100.00
53651;BME280;39552;45.776;15.892;2022-11-20T04:08:41;99959.78;;;3.82;100.00
53651;BME280;39552;45.776;15.892;2022-11-20T04:11:09;99972.22;;;3.83;100.00
53651;BME280;39552;45.776;15.892;2022-11-20T04:13:35;99966.41;;;3.96;100.00
53651;BME280;39552;45.776;15.892;2022-11-20T04:16:02;99964.25;;;3.82;100.00
53651;BME280;39552;45.776;15.892;2022-11-20T04:18:28;99974.53;;;3.94;100.00
53651;BME280;39552;45.776;15.892;2022-11-20T04:20:56;99986.88;;;3.73;100.00
53651;BME280;39552;45.776;15.892;2022-11-20T04:23:22;99991.00;;;3.82;100.00
53651;BME280;39552;45.776;15.892;2022-11-20T04:25:59;100006.34;;;3.51;100.00
53651;BME280;39552;45.776;15.892;2022-11-20T04:28:26;100015.13;;;3.55;100.00
53651;BME280;39552;45.776;15.892;2022-11-20T04:30:52;100001.16;;;3.47;100.00
53651;BME280;39552;45.776;15.892;2022-11-20T04:33:19;99992.75;;;3.32;100.00
53651;BME280;39552;45.776;15.892;2022-11-20T04:35:45;99986.72;;;3.26;100.00
53651;BME280;39552;45.776;15.892;2022-11-20T04:38:13;99984.69;;;3.07;100.00
53651;BME280;39552;45.776;15.892;2022-11-20T04:40:40;99986.63;;;3.02;100.00
53651;BME280;39552;45.776;15.892;2022-11-20T04:43:08;99992.97;;;3.00;100.00
53651;BME280;39552;45.776;15.892;2022-11-20T04:45:34;99995.41;;;3.06;100.00
53651;BME280;39552;45.776;15.892;2022-11-20T04:48:01;99987.28;;;3.09;100.00
53651;BME280;39552;45.776;15.892;2022-11-20T04:50:27;99980.25;;;3.06;100.00
53651;BME280;39552;45.776;15.892;2022-11-20T04:52:54;99981.84;;;3.12;100.00
53651;BME280;39552;45.776;15.892;2022-11-20T04:55:21;99971.75;;;3.20;100.00
53651;BME280;39552;45.776;15.892;2022-11-20T04:57:49;99981.75;;;3.15;100.00
53651;BME280;39552;45.776;15.892;2022-11-20T05:00:17;99981.94;;;3.09;100.00
53651;BME280;39552;45.776;15.892;2022-11-20T05:02:44;99986.94;;;3.20;100.00
53651;BME280;39552;45.776;15.892;2022-11-20T05:05:10;99988.19;;;3.09;100.00
53651;BME280;39552;45.776;15.892;2022-11-20T05:07:37;99991.72;;;3.10;100.00
53651;BME280;39552;45.776;15.892;2022-11-20T05:10:03;99979.09;;;3.15;100.00
53651;BME280;39552;45.776;15.892;2022-11-20T05:12:30;99981.94;;;3.09;100.00
53651;BME280;39552;45.776;15.892;2022-11-20T05:14:57;99981.53;;;3.21;100.00
53651;BME280;39552;45.776;15.892;2022-11-20T05:17:25;99988.69;;;3.21;100.00
53651;BME280;39552;45.776;15.892;2022-11-20T05:19:51;99984.06;;;3.26;100.00
53651;BME280;39552;45.776;15.892;2022-11-20T05:22:18;99990.72;;;3.12;100.00
53651;BME280;39552;45.776;15.892;2022-11-20T05:24:45;99994.13;;;3.18;100.00
53651;BME280;39552;45.776;15.892;2022-11-20T05:27:11;100003.06;;;3.17;100.00
53651;BME280;39552;45.776;15.892;2022-11-20T05:29:37;100002.75;;;3.26;100.00
53651;BME280;39552;45.776;15.892;2022-11-20T05:32:04;100004.81;;;3.18;100.00
53651;BME280;39552;45.776;15.892;2022-11-20T05:34:32;100001.47;;;3.38;100.00
53651;BME280;39552;45.776;15.892;2022-11-20T05:36:58;100000.97;;;3.26;100.00
53651;BME280;39552;45.776;15.892;2022-11-20T05:39:25;99998.50;;;3.20;100.00
53651;BME280;39552;45.776;15.892;2022-11-20T05:41:52;100000.56;;;3.39;100.00
53651;BME280;39552;45.776;15.892;2022-11-20T05:44:18;99996.06;;;3.39;100.00
53651;BME280;39552;45.776;15.892;2022-11-20T05:46:44;100000.56;;;3.39;100.00
53651;BME280;39552;45.776;15.892;2022-11-20T05:49:11;100004.00;;;3.42;100.00
53651;BME280;39552;45.776;15.892;2022-11-20T05:51:39;100017.44;;;3.41;100.00
53651;BME280;39552;45.776;15.892;2022-11-20T05:54:05;100025.06;;;3.51;100.00
53651;BME280;39552;45.776;15.892;2022-11-20T05:56:32;100019.84;;;3.48;100.00
53651;BME280;39552;45.776;15.892;2022-11-20T05:58:58;100022.38;;;3.51;100.00
53651;BME280;39552;45.776;15.892;2022-11-20T06:01:25;100030.16;;;3.59;100.00
53651;BME280;39552;45.776;15.892;2022-11-20T06:03:52;100041.19;;;3.50;100.00
53651;BME280;39552;45.776;15.892;2022-11-20T06:06:19;100036.78;;;3.47;100.00
53651;BME280;39552;45.776;15.892;2022-11-20T06:08:47;100030.88;;;3.64;100.00
53651;BME280;39552;45.776;15.892;2022-11-20T06:11:14;100031.84;;;3.62;100.00
53651;BME280;39552;45.776;15.892;2022-11-20T06:13:41;100030.59;;;3.72;100.00
53651;BME280;39552;45.776;15.892;2022-11-20T06:16:08;100035.22;;;3.67;100.00
53651;BME280;39552;45.776;15.892;2022-11-20T06:18:35;100036.41;;;3.85;100.00
53651;BME280;39552;45.776;15.892;2022-11-20T06:21:02;100044.19;;;3.66;100.00
53651;BME280;39552;45.776;15.892;2022-11-20T06:23:29;100047.03;;;3.61;100.00
53651;BME280;39552;45.776;15.892;2022-11-20T06:25:57;100047.97;;;3.60;100.00
53651;BME280;39552;45.776;15.892;2022-11-20T06:28:23;100062.75;;;3.70;100.00
53651;BME280;39552;45.776;15.892;2022-11-20T06:30:50;100059.66;;;3.83;100.00
53651;BME280;39552;45.776;15.892;2022-11-20T06:33:16;100067.69;;;3.83;100.00
53651;BME280;39552;45.776;15.892;2022-11-20T06:35:43;100054.91;;;3.91;100.00
53651;BME280;39552;45.776;15.892;2022-11-20T06:38:09;100074.47;;;3.93;100.00
53651;BME280;39552;45.776;15.892;2022-11-20T06:40:36;100069.69;;;3.76;100.00
53651;BME280;39552;45.776;15.892;2022-11-20T06:43:03;100069.56;;;3.81;100.00
53651;BME280;39552;45.776;15.892;2022-11-20T06:45:30;100066.88;;;3.81;100.00
53651;BME280;39552;45.776;15.892;2022-11-20T06:47:56;100076.50;;;3.86;100.00
53651;BME280;39552;45.776;15.892;2022-11-20T06:50:23;100074.13;;;3.77;100.00
53651;BME280;39552;45.776;15.892;2022-11-20T06:52:49;100078.06;;;3.92;100.00
53651;BME280;39552;45.776;15.892;2022-11-20T06:55:16;100073.81;;;3.86;100.00
53651;BME280;39552;45.776;15.892;2022-11-20T06:57:42;100074.25;;;3.99;100.00
53651;BME280;39552;45.776;15.892;2022-11-20T07:00:11;100078.19;;;3.89;100.00
53651;BME280;39552;45.776;15.892;2022-11-20T07:02:37;100097.31;;;3.77;100.00
53651;BME280;39552;45.776;15.892;2022-11-20T07:05:04;100092.34;;;3.66;100.00
53651;BME280;39552;45.776;15.892;2022-11-20T07:07:30;100088.81;;;3.65;100.00
53651;BME280;39552;45.776;15.892;2022-11-20T07:09:57;100089.63;;;3.67;100.00
53651;BME280;39552;45.776;15.892;2022-11-20T07:12:23;100093.09;;;3.96;100.00
53651;BME280;39552;45.776;15.892;2022-11-20T07:14:50;100097.94;;;3.85;100.00
53651;BME280;39552;45.776;15.892;2022-11-20T07:17:18;100102.56;;;3.80;100.00
53651;BME280;39552;45.776;15.892;2022-11-20T07:19:44;100103.84;;;3.94;100.00
53651;BME280;39552;45.776;15.892;2022-11-20T07:22:11;100108.53;;;3.88;100.00
53651;BME280;39552;45.776;15.892;2022-11-20T07:24:37;100111.16;;;3.89;100.00
53651;BME280;39552;45.776;15.892;2022-11-20T07:27:11;100115.59;;;3.90;100.00
53651;BME280;39552;45.776;15.892;2022-11-20T07:29:37;100112.28;;;3.82;100.00
53651;BME280;39552;45.776;15.892;2022-11-20T07:32:04;100120.94;;;3.90;100.00
53651;BME280;39552;45.776;15.892;2022-11-20T07:34:31;100125.22;;;3.96;100.00
53651;BME280;39552;45.776;15.892;2022-11-20T07:36:58;100118.75;;;4.02;100.00
53651;BME280;39552;45.776;15.892;2022-11-20T07:39:24;100117.34;;;3.91;100.00
53651;BME280;39552;45.776;15.892;2022-11-20T07:41:51;100125.50;;;3.88;100.00
53651;BME280;39552;45.776;15.892;2022-11-20T07:44:17;100127.34;;;3.86;100.00
53651;BME280;39552;45.776;15.892;2022-11-20T07:46:44;100128.88;;;4.19;100.00
53651;BME280;39552;45.776;15.892;2022-11-20T07:49:10;100125.50;;;4.13;100.00
53651;BME280;39552;45.776;15.892;2022-11-20T07:51:38;100123.53;;;4.19;100.00
53651;BME280;39552;45.776;15.892;2022-11-20T07:54:04;100125.44;;;4.15;100.00
53651;BME280;39552;45.776;15.892;2022-11-20T07:56:31;100140.03;;;4.06;100.00
53651;BME280;39552;45.776;15.892;2022-11-20T07:58:57;100145.38;;;4.06;100.00
53651;BME280;39552;45.776;15.892;2022-11-20T08:01:24;100128.28;;;4.10;100.00
53651;BME280;39552;45.776;15.892;2022-11-20T08:03:50;100127.41;;;4.10;100.00
53651;BME280;39552;45.776;15.892;2022-11-20T08:06:17;100139.44;;;4.23;100.00
53651;BME280;39552;45.776;15.892;2022-11-20T08:08:45;100137.84;;;4.18;100.00
53651;BME280;39552;45.776;15.892;2022-11-20T08:11:11;100134.63;;;4.33;100.00
53651;BME280;39552;45.776;15.892;2022-11-20T08:13:38;100141.63;;;4.37;100.00
53651;BME280;39552;45.776;15.892;2022-11-20T08:16:05;100144.94;;;4.44;100.00
53651;BME280;39552;45.776;15.892;2022-11-20T08:18:31;100145.22;;;4.36;100.00
53651;BME280;39552;45.776;15.892;2022-11-20T08:21:01;100147.41;;;4.25;100.00
53651;BME280;39552;45.776;15.892;2022-11-20T08:23:27;100150.41;;;4.16;100.00
53651;BME280;39552;45.776;15.892;2022-11-20T08:25:55;100158.59;;;4.36;100.00
53651;BME280;39552;45.776;15.892;2022-11-20T08:28:22;100159.56;;;4.35;100.00
53651;BME280;39552;45.776;15.892;2022-11-20T08:30:49;100160.09;;;4.45;100.00
53651;BME280;39552;45.776;15.892;2022-11-20T08:33:15;100164.41;;;4.24;100.00
53651;BME280;39552;45.776;15.892;2022-11-20T08:35:42;100175.13;;;4.24;100.00
53651;BME280;39552;45.776;15.892;2022-11-20T08:38:08;100165.06;;;4.30;100.00
53651;BME280;39552;45.776;15.892;2022-11-20T08:40:35;100171.41;;;4.28;100.00
53651;BME280;39552;45.776;15.892;2022-11-20T08:43:03;100173.00;;;4.33;100.00
53651;BME280;39552;45.776;15.892;2022-11-20T08:45:29;100173.31;;;4.24;100.00
53651;BME280;39552;45.776;15.892;2022-11-20T08:48:00;100168.16;;;4.18;100.00
53651;BME280;39552;45.776;15.892;2022-11-20T08:50:26;100168.34;;;4.13;100.00
53651;BME280;39552;45.776;15.892;2022-11-20T08:52:54;100174.34;;;4.20;100.00
53651;BME280;39552;45.776;15.892;2022-11-20T08:55:28;100186.88;;;4.70;100.00
53651;BME280;39552;45.776;15.892;2022-11-20T08:57:54;100186.59;;;4.78;100.00
53651;BME280;39552;45.776;15.892;2022-11-20T09:00:22;100173.25;;;4.76;100.00
53651;BME280;39552;45.776;15.892;2022-11-20T09:02:51;100167.31;;;4.91;100.00
53651;BME280;39552;45.776;15.892;2022-11-20T09:05:17;100162.41;;;4.79;100.00
53651;BME280;39552;45.776;15.892;2022-11-20T09:07:58;100166.19;;;4.73;100.00
53651;BME280;39552;45.776;15.892;2022-11-20T09:10:25;100166.88;;;4.79;100.00
53651;BME280;39552;45.776;15.892;2022-11-20T09:12:51;100175.00;;;4.77;100.00
53651;BME280;39552;45.776;15.892;2022-11-20T09:15:18;100171.28;;;4.81;100.00
53651;BME280;39552;45.776;15.892;2022-11-20T09:17:51;100169.78;;;4.96;100.00
53651;BME280;39552;45.776;15.892;2022-11-20T09:20:17;100180.72;;;4.91;100.00
53651;BME280;39552;45.776;15.892;2022-11-20T09:22:44;100185.00;;;4.96;100.00
53651;BME280;39552;45.776;15.892;2022-11-20T09:25:10;100183.16;;;4.98;100.00
53651;BME280;39552;45.776;15.892;2022-11-20T09:27:37;100183.44;;;5.13;100.00
53651;BME280;39552;45.776;15.892;2022-11-20T09:30:03;100187.81;;;5.16;100.00
53651;BME280;39552;45.776;15.892;2022-11-20T09:35:34;100194.81;;;5.20;100.00
53651;BME280;39552;45.776;15.892;2022-11-20T09:38:04;100195.88;;;4.92;100.00
53651;BME280;39552;45.776;15.892;2022-11-20T09:40:45;100196.75;;;4.93;100.00
53651;BME280;39552;45.776;15.892;2022-11-20T09:43:14;100201.28;;;5.15;100.00
53651;BME280;39552;45.776;15.892;2022-11-20T09:46:03;100201.53;;;5.08;100.00
53651;BME280;39552;45.776;15.892;2022-11-20T09:51:21;100212.94;;;5.13;100.00
53651;BME280;39552;45.776;15.892;2022-11-20T09:53:55;100210.72;;;5.01;100.00
53651;BME280;39552;45.776;15.892;2022-11-20T09:56:23;100210.09;;;4.95;100.00
53651;BME280;39552;45.776;15.892;2022-11-20T10:01:55;100216.63;;;5.11;100.00
53651;BME280;39552;45.776;15.892;2022-11-20T10:04:21;100211.19;;;5.12;100.00
53651;BME280;39552;45.776;15.892;2022-11-20T10:09:59;100212.34;;;5.05;100.00
53651;BME280;39552;45.776;15.892;2022-11-20T10:12:27;100213.94;;;5.11;100.00
53651;BME280;39552;45.776;15.892;2022-11-20T10:15:03;100220.09;;;4.89;100.00
53651;BME280;39552;45.776;15.892;2022-11-20T10:17:42;100208.94;;;5.25;100.00
53651;BME280;39552;45.776;15.892;2022-11-20T10:20:15;100215.63;;;5.37;100.00
53651;BME280;39552;45.776;15.892;2022-11-20T10:22:49;100204.97;;;5.12;100.00
53651;BME280;39552;45.776;15.892;2022-11-20T10:25:23;100208.94;;;5.25;100.00
53651;BME280;39552;45.776;15.892;2022-11-20T10:27:56;100199.53;;;5.13;100.00
53651;BME280;39552;45.776;15.892;2022-11-20T10:30:25;100206.13;;;5.05;100.00
53651;BME280;39552;45.776;15.892;2022-11-20T10:32:54;100205.31;;;5.26;100.00
53651;BME280;39552;45.776;15.892;2022-11-20T10:35:24;100196.34;;;5.27;100.00
53651;BME280;39552;45.776;15.892;2022-11-20T10:37:55;100204.09;;;5.35;100.00
53651;BME280;39552;45.776;15.892;2022-11-20T10:40:25;100200.94;;;5.24;100.00
53651;BME280;39552;45.776;15.892;2022-11-20T10:42:54;100206.38;;;4.99;100.00
53651;BME280;39552;45.776;15.892;2022-11-20T10:45:27;100207.50;;;5.15;100.00
53651;BME280;39552;45.776;15.892;2022-11-20T10:48:00;100209.22;;;5.63;100.00
53651;BME280;39552;45.776;15.892;2022-11-20T10:50:33;100208.97;;;5.69;100.00
53651;BME280;39552;45.776;15.892;2022-11-20T10:53:03;100204.50;;;5.70;100.00
53651;BME280;39552;45.776;15.892;2022-11-20T10:55:38;100199.28;;;5.65;100.00
53651;BME280;39552;45.776;15.892;2022-11-20T10:58:08;100205.47;;;5.45;100.00
53651;BME280;39552;45.776;15.892;2022-11-20T11:00:36;100210.06;;;5.42;100.00
53651;BME280;39552;45.776;15.892;2022-11-20T11:03:07;100212.84;;;5.62;100.00
53651;BME280;39552;45.776;15.892;2022-11-20T11:05:41;100209.59;;;5.30;100.00
53651;BME280;39552;45.776;15.892;2022-11-20T11:08:16;100212.66;;;5.45;100.00
53651;BME280;39552;45.776;15.892;2022-11-20T11:10:46;100202.84;;;5.88;100.00
53651;BME280;39552;45.776;15.892;2022-11-20T11:13:19;100199.97;;;5.93;100.00
53651;BME280;39552;45.776;15.892;2022-11-20T11:15:46;100197.63;;;6.07;100.00
53651;BME280;39552;45.776;15.892;2022-11-20T11:18:22;100207.91;;;5.74;100.00
53651;BME280;39552;45.776;15.892;2022-11-20T11:20:49;100209.25;;;5.85;100.00
53651;BME280;39552;45.776;15.892;2022-11-20T11:23:22;100210.41;;;5.78;100.00
53651;BME280;39552;45.776;15.892;2022-11-20T11:26:00;100218.06;;;5.65;100.00
53651;BME280;39552;45.776;15.892;2022-11-20T11:28:27;100211.34;;;5.55;100.00
53651;BME280;39552;45.776;15.892;2022-11-20T11:30:53;100210.06;;;5.64;100.00
53651;BME280;39552;45.776;15.892;2022-11-20T11:33:21;100207.09;;;5.71;100.00
53651;BME280;39552;45.776;15.892;2022-11-20T11:35:48;100205.75;;;5.83;100.00
53651;BME280;39552;45.776;15.892;2022-11-20T11:38:19;100203.91;;;5.62;100.00
53651;BME280;39552;45.776;15.892;2022-11-20T11:40:46;100204.00;;;5.60;100.00
53651;BME280;39552;45.776;15.892;2022-11-20T11:43:18;100199.22;;;5.89;100.00
53651;BME280;39552;45.776;15.892;2022-11-20T11:45:55;100192.81;;;5.93;100.00
53651;BME280;39552;45.776;15.892;2022-11-20T11:48:22;100200.44;;;5.82;100.00
53651;BME280;39552;45.776;15.892;2022-11-20T11:50:48;100187.13;;;5.79;100.00
53651;BME280;39552;45.776;15.892;2022-11-20T11:53:16;100198.81;;;5.78;100.00
53651;BME280;39552;45.776;15.892;2022-11-20T11:55:44;100198.09;;;5.95;100.00
53651;BME280;39552;45.776;15.892;2022-11-20T11:58:20;100195.13;;;6.02;100.00
53651;BME280;39552;45.776;15.892;2022-11-20T12:00:51;100181.00;;;6.19;100.00
53651;BME280;39552;45.776;15.892;2022-11-20T12:03:21;100181.38;;;5.88;100.00
53651;BME280;39552;45.776;15.892;2022-11-20T12:05:53;100193.44;;;5.78;100.00
53651;BME280;39552;45.776;15.892;2022-11-20T12:08:23;100187.56;;;5.90;100.00
53651;BME280;39552;45.776;15.892;2022-11-20T12:10:53;100188.31;;;5.94;100.00
53651;BME280;39552;45.776;15.892;2022-11-20T12:13:30;100185.75;;;5.90;100.00
53651;BME280;39552;45.776;15.892;2022-11-20T12:15:59;100191.47;;;5.81;100.00
53651;BME280;39552;45.776;15.892;2022-11-20T12:18:26;100186.25;;;5.78;100.00
53651;BME280;39552;45.776;15.892;2022-11-20T12:20:56;100184.13;;;5.86;100.00
53651;BME280;39552;45.776;15.892;2022-11-20T12:23:28;100178.63;;;6.12;100.00
53651;BME280;39552;45.776;15.892;2022-11-20T12:25:57;100181.94;;;6.18;100.00
53651;BME280;39552;45.776;15.892;2022-11-20T12:28:31;100182.44;;;5.84;100.00
53651;BME280;39552;45.776;15.892;2022-11-20T12:36:31;100181.47;;;6.29;100.00
53651;BME280;39552;45.776;15.892;2022-11-20T12:39:09;100178.66;;;6.32;100.00
53651;BME280;39552;45.776;15.892;2022-11-20T12:41:42;100178.25;;;6.21;100.00
53651;BME280;39552;45.776;15.892;2022-11-20T12:44:16;100164.28;;;6.13;100.00
53651;BME280;39552;45.776;15.892;2022-11-20T12:46:48;100166.09;;;6.33;100.00
53651;BME280;39552;45.776;15.892;2022-11-20T12:49:25;100159.69;;;6.56;100.00
53651;BME280;39552;45.776;15.892;2022-11-20T12:54:46;100161.09;;;6.23;100.00
53651;BME280;39552;45.776;15.892;2022-11-20T12:57:16;100149.72;;;6.18;100.00
53651;BME280;39552;45.776;15.892;2022-11-20T12:59:59;100144.19;;;6.42;100.00
53651;BME280;39552;45.776;15.892;2022-11-20T13:02:27;100146.59;;;6.07;100.00
53651;BME280;39552;45.776;15.892;2022-11-20T13:05:02;100131.63;;;6.22;100.00
53651;BME280;39552;45.776;15.892;2022-11-20T13:07:30;100133.38;;;6.23;100.00
53651;BME280;39552;45.776;15.892;2022-11-20T13:09:59;100125.72;;;6.34;100.00
53651;BME280;39552;45.776;15.892;2022-11-20T13:12:28;100113.38;;;6.30;100.00
53651;BME280;39552;45.776;15.892;2022-11-20T13:15:05;100067.69;;;6.30;100.00